sensor_id;sensor_type;location;lat;lon;timestamp;temperature;humidity
48860;DHT22;34679;51.436;-2.518;2023-11-22T00:00:10;5.40;99.90
48860;DHT22;34679;51.436;-2.518;2023-11-22T00:02:37;5.40;99.90
48860;DHT22;34679;51.436;-2.518;2023-11-22T00:05:03;5.40;99.90
48860;DHT22;34679;51.436;-2.518;2023-11-22T00:07:31;5.40;99.90
48860;DHT22;34679;51.436;-2.518;2023-11-22T00:09:56;5.40;99.90
48860;DHT22;34679;51.436;-2.518;2023-11-22T00:12:22;5.50;99.90
48860;DHT22;34679;51.436;-2.518;2023-11-22T00:14:48;5.50;99.90
48860;DHT22;34679;51.436;-2.518;2023-11-22T00:17:15;5.50;99.90
48860;DHT22;34679;51.436;-2.518;2023-11-22T00:19:43;5.40;99.90
48860;DHT22;34679;51.436;-2.518;2023-11-22T00:22:10;5.50;99.90
48860;DHT22;34679;51.436;-2.518;2023-11-22T00:24:40;5.50;99.90
48860;DHT22;34679;51.436;-2.518;2023-11-22T00:27:09;5.50;99.90
48860;DHT22;34679;51.436;-2.518;2023-11-22T00:29:36;5.60;99.90
48860;DHT22;34679;51.436;-2.518;2023-11-22T00:32:01;5.60;99.90
48860;DHT22;34679;51.436;-2.518;2023-11-22T00:34:27;5.60;99.90
48860;DHT22;34679;51.436;-2.518;2023-11-22T00:36:53;5.60;99.90
48860;DHT22;34679;51.436;-2.518;2023-11-22T00:39:19;5.60;99.90
48860;DHT22;34679;51.436;-2.518;2023-11-22T00:41:45;5.60;99.90
48860;DHT22;34679;51.436;-2.518;2023-11-22T00:44:11;5.60;99.90
48860;DHT22;34679;51.436;-2.518;2023-11-22T00:46:37;5.70;99.90
48860;DHT22;34679;51.436;-2.518;2023-11-22T00:49:05;5.70;99.90
48860;DHT22;34679;51.436;-2.518;2023-11-22T00:51:34;5.70;99.90
48860;DHT22;34679;51.436;-2.518;2023-11-22T00:54:00;5.80;99.90
48860;DHT22;34679;51.436;-2.518;2023-11-22T00:56:26;5.80;99.90
48860;DHT22;34679;51.436;-2.518;2023-11-22T00:58:52;5.80;99.90
48860;DHT22;34679;51.436;-2.518;2023-11-22T01:01:19;5.80;99.90
48860;DHT22;34679;51.436;-2.518;2023-11-22T01:03:45;5.90;99.90
48860;DHT22;34679;51.436;-2.518;2023-11-22T01:06:12;5.90;99.90
48860;DHT22;34679;51.436;-2.518;2023-11-22T01:08:38;5.90;99.90
48860;DHT22;34679;51.436;-2.518;2023-11-22T01:11:04;5.90;99.90
48860;DHT22;34679;51.436;-2.518;2023-11-22T01:13:31;6.00;99.90
48860;DHT22;34679;51.436;-2.518;2023-11-22T01:16:11;6.00;99.90
48860;DHT22;34679;51.436;-2.518;2023-11-22T01:18:38;6.00;99.90
48860;DHT22;34679;51.436;-2.518;2023-11-22T01:21:04;6.00;99.90
48860;DHT22;34679;51.436;-2.518;2023-11-22T01:23:32;6.00;99.90
48860;DHT22;34679;51.436;-2.518;2023-11-22T01:25:58;6.00;99.90
48860;DHT22;34679;51.436;-2.518;2023-11-22T01:28:28;6.00;99.90
48860;DHT22;34679;51.436;-2.518;2023-11-22T01:30:54;6.00;99.90
48860;DHT22;34679;51.436;-2.518;2023-11-22T01:33:21;6.00;99.90
48860;DHT22;34679;51.436;-2.518;2023-11-22T01:35:46;6.00;99.90
48860;DHT22;34679;51.436;-2.518;2023-11-22T01:38:12;6.00;99.90
48860;DHT22;34679;51.436;-2.518;2023-11-22T01:40:47;6.00;99.90
48860;DHT22;34679;51.436;-2.518;2023-11-22T01:43:14;5.90;99.90
48860;DHT22;34679;51.436;-2.518;2023-11-22T01:45:40;6.00;99.90
48860;DHT22;34679;51.436;-2.518;2023-11-22T01:48:07;6.00;99.90
48860;DHT22;34679;51.436;-2.518;2023-11-22T01:50:32;6.00;99.90
48860;DHT22;34679;51.436;-2.518;2023-11-22T01:52:59;5.90;99.90
48860;DHT22;34679;51.436;-2.518;2023-11-22T01:55:25;5.90;99.90
48860;DHT22;34679;51.436;-2.518;2023-11-22T01:57:51;5.90;99.90
48860;DHT22;34679;51.436;-2.518;2023-11-22T02:00:18;5.90;99.90
48860;DHT22;34679;51.436;-2.518;2023-11-22T02:02:45;5.90;99.90
48860;DHT22;34679;51.436;-2.518;2023-11-22T02:05:10;5.90;99.90
48860;DHT22;34679;51.436;-2.518;2023-11-22T02:07:37;5.90;99.90
48860;DHT22;34679;51.436;-2.518;2023-11-22T02:10:06;5.90;99.90
48860;DHT22;34679;51.436;-2.518;2023-11-22T02:12:32;5.90;99.90
48860;DHT22;34679;51.436;-2.518;2023-11-22T02:14:59;5.80;99.90
48860;DHT22;34679;51.436;-2.518;2023-11-22T02:17:25;5.80;99.90
48860;DHT22;34679;51.436;-2.518;2023-11-22T02:19:51;5.80;99.90
48860;DHT22;34679;51.436;-2.518;2023-11-22T02:22:17;5.70;99.90
48860;DHT22;34679;51.436;-2.518;2023-11-22T02:24:42;5.80;99.90
48860;DHT22;34679;51.436;-2.518;2023-11-22T02:27:08;5.80;99.90
48860;DHT22;34679;51.436;-2.518;2023-11-22T02:29:34;5.70;99.90
48860;DHT22;34679;51.436;-2.518;2023-11-22T02:32:00;5.80;99.90
48860;DHT22;34679;51.436;-2.518;2023-11-22T02:34:25;5.70;99.90
48860;DHT22;34679;51.436;-2.518;2023-11-22T02:36:51;5.70;99.90
48860;DHT22;34679;51.436;-2.518;2023-11-22T02:39:17;5.70;99.90
48860;DHT22;34679;51.436;-2.518;2023-11-22T02:41:44;5.70;99.90
48860;DHT22;34679;51.436;-2.518;2023-11-22T02:44:10;5.70;99.90
48860;DHT22;34679;51.436;-2.518;2023-11-22T02:46:36;5.70;99.90
48860;DHT22;34679;51.436;-2.518;2023-11-22T02:49:02;5.80;99.90
48860;DHT22;34679;51.436;-2.518;2023-11-22T02:51:27;5.80;99.90
48860;DHT22;34679;51.436;-2.518;2023-11-22T02:53:54;5.80;99.90
48860;DHT22;34679;51.436;-2.518;2023-11-22T02:56:19;5.90;99.90
48860;DHT22;34679;51.436;-2.518;2023-11-22T02:58:46;5.80;99.90
48860;DHT22;34679;51.436;-2.518;2023-11-22T03:01:12;5.80;99.90
48860;DHT22;34679;51.436;-2.518;2023-11-22T03:03:37;5.70;99.90
48860;DHT22;34679;51.436;-2.518;2023-11-22T03:06:03;5.70;99.90
48860;DHT22;34679;51.436;-2.518;2023-11-22T03:08:30;5.70;99.90
48860;DHT22;34679;51.436;-2.518;2023-11-22T03:10:55;5.70;99.90
48860;DHT22;34679;51.436;-2.518;2023-11-22T03:13:21;5.70;99.90
48860;DHT22;34679;51.436;-2.518;2023-11-22T03:15:48;5.70;99.90
48860;DHT22;34679;51.436;-2.518;2023-11-22T03:18:13;5.60;99.90
48860;DHT22;34679;51.436;-2.518;2023-11-22T03:20:39;5.60;99.90
48860;DHT22;34679;51.436;-2.518;2023-11-22T03:23:07;5.60;99.90
48860;DHT22;34679;51.436;-2.518;2023-11-22T03:25:36;5.60;99.90
48860;DHT22;34679;51.436;-2.518;2023-11-22T03:28:02;5.60;99.90
48860;DHT22;34679;51.436;-2.518;2023-11-22T03:30:28;5.60;99.90
48860;DHT22;34679;51.436;-2.518;2023-11-22T03:32:53;5.60;99.90
48860;DHT22;34679;51.436;-2.518;2023-11-22T03:35:21;5.60;99.90
48860;DHT22;34679;51.436;-2.518;2023-11-22T03:37:47;5.60;99.90
48860;DHT22;34679;51.436;-2.518;2023-11-22T03:40:12;5.60;99.90
48860;DHT22;34679;51.436;-2.518;2023-11-22T03:42:39;5.60;99.90
48860;DHT22;34679;51.436;-2.518;2023-11-22T03:45:05;5.70;99.90
48860;DHT22;34679;51.436;-2.518;2023-11-22T03:47:32;5.70;99.90
48860;DHT22;34679;51.436;-2.518;2023-11-22T03:49:58;5.70;99.90
48860;DHT22;34679;51.436;-2.518;2023-11-22T03:52:25;5.80;99.90
48860;DHT22;34679;51.436;-2.518;2023-11-22T03:54:52;5.80;99.90
48860;DHT22;34679;51.436;-2.518;2023-11-22T03:57:18;5.80;99.90
48860;DHT22;34679;51.436;-2.518;2023-11-22T03:59:44;5.80;99.90
48860;DHT22;34679;51.436;-2.518;2023-11-22T04:02:09;5.80;99.90
48860;DHT22;34679;51.436;-2.518;2023-11-22T04:04:36;5.80;99.90
48860;DHT22;34679;51.436;-2.518;2023-11-22T04:07:03;5.90;99.90
48860;DHT22;34679;51.436;-2.518;2023-11-22T04:09:28;5.80;99.90
48860;DHT22;34679;51.436;-2.518;2023-11-22T04:11:55;5.80;99.90
48860;DHT22;34679;51.436;-2.518;2023-11-22T04:14:20;5.80;99.90
48860;DHT22;34679;51.436;-2.518;2023-11-22T04:16:47;5.80;99.90
48860;DHT22;34679;51.436;-2.518;2023-11-22T04:19:13;5.80;99.90
48860;DHT22;34679;51.436;-2.518;2023-11-22T04:21:38;5.80;99.90
48860;DHT22;34679;51.436;-2.518;2023-11-22T04:24:05;5.80;99.90
48860;DHT22;34679;51.436;-2.518;2023-11-22T04:26:30;5.80;99.90
48860;DHT22;34679;51.436;-2.518;2023-11-22T04:28:57;5.80;99.90
48860;DHT22;34679;51.436;-2.518;2023-11-22T04:31:24;5.80;99.90
48860;DHT22;34679;51.436;-2.518;2023-11-22T04:33:49;5.80;99.90
48860;DHT22;34679;51.436;-2.518;2023-11-22T04:36:15;5.80;99.90
48860;DHT22;34679;51.436;-2.518;2023-11-22T04:38:42;5.90;99.90
48860;DHT22;34679;51.436;-2.518;2023-11-22T04:41:08;5.80;99.90
48860;DHT22;34679;51.436;-2.518;2023-11-22T04:43:34;5.80;99.90
48860;DHT22;34679;51.436;-2.518;2023-11-22T04:45:59;5.90;99.90
48860;DHT22;34679;51.436;-2.518;2023-11-22T04:48:25;5.80;99.90
48860;DHT22;34679;51.436;-2.518;2023-11-22T04:50:51;5.90;99.90
48860;DHT22;34679;51.436;-2.518;2023-11-22T04:53:18;5.80;99.90
48860;DHT22;34679;51.436;-2.518;2023-11-22T04:55:44;5.80;99.90
48860;DHT22;34679;51.436;-2.518;2023-11-22T04:58:10;5.80;99.90
48860;DHT22;34679;51.436;-2.518;2023-11-22T05:00:36;5.90;99.90
48860;DHT22;34679;51.436;-2.518;2023-11-22T05:03:02;5.90;99.90
48860;DHT22;34679;51.436;-2.518;2023-11-22T05:05:28;5.90;99.90
48860;DHT22;34679;51.436;-2.518;2023-11-22T05:07:54;5.80;99.90
48860;DHT22;34679;51.436;-2.518;2023-11-22T05:10:19;5.90;99.90
48860;DHT22;34679;51.436;-2.518;2023-11-22T05:12:45;5.80;99.90
48860;DHT22;34679;51.436;-2.518;2023-11-22T05:15:11;5.80;99.90
48860;DHT22;34679;51.436;-2.518;2023-11-22T05:17:37;5.80;99.90
48860;DHT22;34679;51.436;-2.518;2023-11-22T05:20:03;5.80;99.90
48860;DHT22;34679;51.436;-2.518;2023-11-22T05:22:30;5.70;99.90
48860;DHT22;34679;51.436;-2.518;2023-11-22T05:24:56;5.70;99.90
48860;DHT22;34679;51.436;-2.518;2023-11-22T05:27:22;5.70;99.90
48860;DHT22;34679;51.436;-2.518;2023-11-22T05:29:47;5.70;99.90
48860;DHT22;34679;51.436;-2.518;2023-11-22T05:32:13;5.70;99.90
48860;DHT22;34679;51.436;-2.518;2023-11-22T05:34:39;5.60;99.90
48860;DHT22;34679;51.436;-2.518;2023-11-22T05:37:06;5.60;99.90
48860;DHT22;34679;51.436;-2.518;2023-11-22T05:39:31;5.70;99.90
48860;DHT22;34679;51.436;-2.518;2023-11-22T05:41:57;5.60;99.90
48860;DHT22;34679;51.436;-2.518;2023-11-22T05:44:23;5.60;99.90
48860;DHT22;34679;51.436;-2.518;2023-11-22T05:46:51;5.70;99.90
48860;DHT22;34679;51.436;-2.518;2023-11-22T05:49:16;5.70;99.90
48860;DHT22;34679;51.436;-2.518;2023-11-22T05:51:42;5.90;99.90
48860;DHT22;34679;51.436;-2.518;2023-11-22T05:54:08;5.90;99.90
48860;DHT22;34679;51.436;-2.518;2023-11-22T05:56:34;5.90;99.90
48860;DHT22;34679;51.436;-2.518;2023-11-22T05:59:00;6.00;99.90
48860;DHT22;34679;51.436;-2.518;2023-11-22T06:01:26;6.00;99.90
48860;DHT22;34679;51.436;-2.518;2023-11-22T06:03:56;5.90;99.90
48860;DHT22;34679;51.436;-2.518;2023-11-22T06:06:22;5.90;99.90
48860;DHT22;34679;51.436;-2.518;2023-11-22T06:08:48;5.90;99.90
48860;DHT22;34679;51.436;-2.518;2023-11-22T06:11:14;5.90;99.90
48860;DHT22;34679;51.436;-2.518;2023-11-22T06:13:43;5.90;99.90
48860;DHT22;34679;51.436;-2.518;2023-11-22T06:16:09;5.90;99.90
48860;DHT22;34679;51.436;-2.518;2023-11-22T06:18:35;5.90;99.90
48860;DHT22;34679;51.436;-2.518;2023-11-22T06:21:06;6.00;99.90
48860;DHT22;34679;51.436;-2.518;2023-11-22T06:23:32;6.00;99.90
48860;DHT22;34679;51.436;-2.518;2023-11-22T06:25:58;6.10;99.90
48860;DHT22;34679;51.436;-2.518;2023-11-22T06:28:24;6.00;99.90
48860;DHT22;34679;51.436;-2.518;2023-11-22T06:30:49;6.00;99.90
48860;DHT22;34679;51.436;-2.518;2023-11-22T06:33:16;6.00;99.90
48860;DHT22;34679;51.436;-2.518;2023-11-22T06:35:41;6.00;99.90
48860;DHT22;34679;51.436;-2.518;2023-11-22T06:38:08;6.10;99.90
48860;DHT22;34679;51.436;-2.518;2023-11-22T06:40:34;6.10;99.90
48860;DHT22;34679;51.436;-2.518;2023-11-22T06:42:59;6.10;99.90
48860;DHT22;34679;51.436;-2.518;2023-11-22T06:45:25;6.10;99.90
48860;DHT22;34679;51.436;-2.518;2023-11-22T06:47:51;6.10;99.90
48860;DHT22;34679;51.436;-2.518;2023-11-22T06:50:18;6.10;99.90
48860;DHT22;34679;51.436;-2.518;2023-11-22T06:52:44;6.10;99.90
48860;DHT22;34679;51.436;-2.518;2023-11-22T06:55:10;6.10;99.90
48860;DHT22;34679;51.436;-2.518;2023-11-22T06:57:37;6.10;99.90
48860;DHT22;34679;51.436;-2.518;2023-11-22T07:00:04;6.00;99.90
48860;DHT22;34679;51.436;-2.518;2023-11-22T07:02:30;6.00;99.90
48860;DHT22;34679;51.436;-2.518;2023-11-22T07:04:56;6.00;99.90
48860;DHT22;34679;51.436;-2.518;2023-11-22T07:07:24;6.00;99.90
48860;DHT22;34679;51.436;-2.518;2023-11-22T07:09:50;6.10;99.90
48860;DHT22;34679;51.436;-2.518;2023-11-22T07:12:16;6.10;99.90
48860;DHT22;34679;51.436;-2.518;2023-11-22T07:14:42;6.20;99.90
48860;DHT22;34679;51.436;-2.518;2023-11-22T07:17:09;6.30;99.90
48860;DHT22;34679;51.436;-2.518;2023-11-22T07:19:35;6.20;99.90
48860;DHT22;34679;51.436;-2.518;2023-11-22T07:22:06;6.20;99.90
48860;DHT22;34679;51.436;-2.518;2023-11-22T07:24:42;6.30;99.90
48860;DHT22;34679;51.436;-2.518;2023-11-22T07:27:12;6.30;99.90
48860;DHT22;34679;51.436;-2.518;2023-11-22T07:29:42;6.30;99.90
48860;DHT22;34679;51.436;-2.518;2023-11-22T07:32:09;6.30;99.90
48860;DHT22;34679;51.436;-2.518;2023-11-22T07:34:36;6.30;99.90
48860;DHT22;34679;51.436;-2.518;2023-11-22T07:37:01;6.30;99.90
48860;DHT22;34679;51.436;-2.518;2023-11-22T07:39:27;6.40;99.90
48860;DHT22;34679;51.436;-2.518;2023-11-22T07:41:57;6.40;99.90
48860;DHT22;34679;51.436;-2.518;2023-11-22T07:44:22;6.40;99.90
48860;DHT22;34679;51.436;-2.518;2023-11-22T07:46:49;6.40;99.90
48860;DHT22;34679;51.436;-2.518;2023-11-22T07:49:17;6.40;99.90
48860;DHT22;34679;51.436;-2.518;2023-11-22T07:51:44;6.50;99.90
48860;DHT22;34679;51.436;-2.518;2023-11-22T07:54:11;6.50;99.90
48860;DHT22;34679;51.436;-2.518;2023-11-22T07:56:44;6.50;99.90
48860;DHT22;34679;51.436;-2.518;2023-11-22T07:59:10;6.50;99.90
48860;DHT22;34679;51.436;-2.518;2023-11-22T08:01:42;6.60;99.90
48860;DHT22;34679;51.436;-2.518;2023-11-22T08:04:09;6.60;99.90
48860;DHT22;34679;51.436;-2.518;2023-11-22T08:06:35;6.70;99.90
48860;DHT22;34679;51.436;-2.518;2023-11-22T08:09:01;6.70;99.90
48860;DHT22;34679;51.436;-2.518;2023-11-22T08:11:27;6.70;99.90
48860;DHT22;34679;51.436;-2.518;2023-11-22T08:13:54;6.70;99.90
48860;DHT22;34679;51.436;-2.518;2023-11-22T08:16:23;6.70;99.90
48860;DHT22;34679;51.436;-2.518;2023-11-22T08:18:49;6.70;99.90
48860;DHT22;34679;51.436;-2.518;2023-11-22T08:21:15;6.70;99.90
48860;DHT22;34679;51.436;-2.518;2023-11-22T08:23:41;6.80;99.90
48860;DHT22;34679;51.436;-2.518;2023-11-22T08:26:06;6.80;99.90
48860;DHT22;34679;51.436;-2.518;2023-11-22T08:28:34;6.80;99.90
48860;DHT22;34679;51.436;-2.518;2023-11-22T08:31:00;6.90;99.90
48860;DHT22;34679;51.436;-2.518;2023-11-22T08:33:29;6.90;99.90
48860;DHT22;34679;51.436;-2.518;2023-11-22T08:35:55;7.00;99.90
48860;DHT22;34679;51.436;-2.518;2023-11-22T08:38:25;7.00;99.90
48860;DHT22;34679;51.436;-2.518;2023-11-22T08:40:53;7.10;99.90
48860;DHT22;34679;51.436;-2.518;2023-11-22T08:43:20;7.10;99.90
48860;DHT22;34679;51.436;-2.518;2023-11-22T08:45:49;7.20;99.90
48860;DHT22;34679;51.436;-2.518;2023-11-22T08:48:15;7.20;99.90
48860;DHT22;34679;51.436;-2.518;2023-11-22T08:50:42;7.30;99.90
48860;DHT22;34679;51.436;-2.518;2023-11-22T08:53:10;7.30;99.90
48860;DHT22;34679;51.436;-2.518;2023-11-22T08:55:36;7.40;99.90
48860;DHT22;34679;51.436;-2.518;2023-11-22T08:58:02;7.40;99.90
48860;DHT22;34679;51.436;-2.518;2023-11-22T09:00:27;7.50;99.90
48860;DHT22;34679;51.436;-2.518;2023-11-22T09:02:56;7.50;99.90
48860;DHT22;34679;51.436;-2.518;2023-11-22T09:05:22;7.60;99.90
48860;DHT22;34679;51.436;-2.518;2023-11-22T09:07:48;7.60;99.90
48860;DHT22;34679;51.436;-2.518;2023-11-22T09:10:13;7.70;99.90
48860;DHT22;34679;51.436;-2.518;2023-11-22T09:12:41;7.70;99.90
48860;DHT22;34679;51.436;-2.518;2023-11-22T09:15:13;7.80;99.90
48860;DHT22;34679;51.436;-2.518;2023-11-22T09:17:42;7.80;99.90
48860;DHT22;34679;51.436;-2.518;2023-11-22T09:20:18;7.90;99.90
48860;DHT22;34679;51.436;-2.518;2023-11-22T09:22:53;8.00;99.90
48860;DHT22;34679;51.436;-2.518;2023-11-22T09:27:49;7.90;99.90
48860;DHT22;34679;51.436;-2.518;2023-11-22T09:30:20;7.90;99.90
48860;DHT22;34679;51.436;-2.518;2023-11-22T09:33:02;8.00;99.90
48860;DHT22;34679;51.436;-2.518;2023-11-22T09:35:28;8.00;99.90
48860;DHT22;34679;51.436;-2.518;2023-11-22T09:37:55;8.10;99.90
48860;DHT22;34679;51.436;-2.518;2023-11-22T09:40:22;8.20;99.90
48860;DHT22;34679;51.436;-2.518;2023-11-22T09:42:48;8.30;99.90
48860;DHT22;34679;51.436;-2.518;2023-11-22T09:45:20;8.40;99.90
48860;DHT22;34679;51.436;-2.518;2023-11-22T09:47:46;8.50;99.90
48860;DHT22;34679;51.436;-2.518;2023-11-22T09:53:00;8.70;99.90
48860;DHT22;34679;51.436;-2.518;2023-11-22T09:55:28;8.80;99.90
48860;DHT22;34679;51.436;-2.518;2023-11-22T09:57:58;8.90;99.90
48860;DHT22;34679;51.436;-2.518;2023-11-22T10:00:27;9.10;99.90
48860;DHT22;34679;51.436;-2.518;2023-11-22T10:02:53;9.20;99.90
48860;DHT22;34679;51.436;-2.518;2023-11-22T10:05:19;9.30;99.90
48860;DHT22;34679;51.436;-2.518;2023-11-22T10:07:46;9.40;99.90
48860;DHT22;34679;51.436;-2.518;2023-11-22T10:10:15;9.50;99.90
48860;DHT22;34679;51.436;-2.518;2023-11-22T10:12:42;9.60;99.90
48860;DHT22;34679;51.436;-2.518;2023-11-22T10:15:16;9.70;99.90
48860;DHT22;34679;51.436;-2.518;2023-11-22T10:17:57;9.80;99.90
48860;DHT22;34679;51.436;-2.518;2023-11-22T10:20:42;9.90;99.90
48860;DHT22;34679;51.436;-2.518;2023-11-22T10:23:13;10.00;99.90
48860;DHT22;34679;51.436;-2.518;2023-11-22T10:25:48;10.10;99.90
48860;DHT22;34679;51.436;-2.518;2023-11-22T10:28:15;10.20;99.90
48860;DHT22;34679;51.436;-2.518;2023-11-22T10:30:46;10.20;99.90
48860;DHT22;34679;51.436;-2.518;2023-11-22T10:33:12;10.20;99.90
48860;DHT22;34679;51.436;-2.518;2023-11-22T10:35:46;10.20;99.90
48860;DHT22;34679;51.436;-2.518;2023-11-22T10:38:17;10.10;99.90
48860;DHT22;34679;51.436;-2.518;2023-11-22T10:40:43;10.00;99.90
48860;DHT22;34679;51.436;-2.518;2023-11-22T10:43:16;10.00;99.90
48860;DHT22;34679;51.436;-2.518;2023-11-22T10:45:43;10.00;99.90
48860;DHT22;34679;51.436;-2.518;2023-11-22T10:48:16;10.10;99.90
48860;DHT22;34679;51.436;-2.518;2023-11-22T10:50:45;10.10;99.90
48860;DHT22;34679;51.436;-2.518;2023-11-22T10:53:13;10.20;99.90
48860;DHT22;34679;51.436;-2.518;2023-11-22T10:55:45;10.30;99.90
48860;DHT22;34679;51.436;-2.518;2023-11-22T10:58:14;10.40;99.90
48860;DHT22;34679;51.436;-2.518;2023-11-22T11:00:41;10.50;99.90
48860;DHT22;34679;51.436;-2.518;2023-11-22T11:03:18;10.50;99.90
48860;DHT22;34679;51.436;-2.518;2023-11-22T11:05:58;10.50;99.90
48860;DHT22;34679;51.436;-2.518;2023-11-22T11:08:28;10.60;99.90
48860;DHT22;34679;51.436;-2.518;2023-11-22T11:10:55;10.70;99.90
48860;DHT22;34679;51.436;-2.518;2023-11-22T11:13:21;10.80;99.90
48860;DHT22;34679;51.436;-2.518;2023-11-22T11:15:47;10.80;99.90
48860;DHT22;34679;51.436;-2.518;2023-11-22T11:18:17;10.90;99.90
48860;DHT22;34679;51.436;-2.518;2023-11-22T11:20:45;10.90;99.90
48860;DHT22;34679;51.436;-2.518;2023-11-22T11:23:19;11.00;99.90
48860;DHT22;34679;51.436;-2.518;2023-11-22T11:25:50;11.00;99.90
48860;DHT22;34679;51.436;-2.518;2023-11-22T11:28:19;11.10;99.90
48860;DHT22;34679;51.436;-2.518;2023-11-22T11:30:49;11.20;99.90
48860;DHT22;34679;51.436;-2.518;2023-11-22T11:33:18;11.20;99.90
48860;DHT22;34679;51.436;-2.518;2023-11-22T11:35:48;11.30;99.90
48860;DHT22;34679;51.436;-2.518;2023-11-22T11:38:15;11.40;99.90
48860;DHT22;34679;51.436;-2.518;2023-11-22T11:40:43;11.40;99.90
48860;DHT22;34679;51.436;-2.518;2023-11-22T11:43:10;11.40;99.90
48860;DHT22;34679;51.436;-2.518;2023-11-22T11:45:44;11.60;99.90
48860;DHT22;34679;51.436;-2.518;2023-11-22T11:48:13;11.60;99.90
48860;DHT22;34679;51.436;-2.518;2023-11-22T11:50:40;11.70;99.90
48860;DHT22;34679;51.436;-2.518;2023-11-22T11:53:06;11.70;99.90
48860;DHT22;34679;51.436;-2.518;2023-11-22T11:55:32;11.70;99.90
48860;DHT22;34679;51.436;-2.518;2023-11-22T11:58:04;11.80;99.90
48860;DHT22;34679;51.436;-2.518;2023-11-22T12:00:30;11.90;99.90
48860;DHT22;34679;51.436;-2.518;2023-11-22T12:02:56;11.90;99.90
48860;DHT22;34679;51.436;-2.518;2023-11-22T12:05:22;12.00;99.90
48860;DHT22;34679;51.436;-2.518;2023-11-22T12:07:48;12.10;99.90
48860;DHT22;34679;51.436;-2.518;2023-11-22T12:10:14;12.10;99.90
48860;DHT22;34679;51.436;-2.518;2023-11-22T12:12:42;12.30;99.90
48860;DHT22;34679;51.436;-2.518;2023-11-22T12:15:09;12.40;99.90
48860;DHT22;34679;51.436;-2.518;2023-11-22T12:17:36;12.40;99.90
48860;DHT22;34679;51.436;-2.518;2023-11-22T12:20:15;12.40;99.90
48860;DHT22;34679;51.436;-2.518;2023-11-22T12:22:47;12.50;99.90
48860;DHT22;34679;51.436;-2.518;2023-11-22T12:25:14;12.60;99.90
48860;DHT22;34679;51.436;-2.518;2023-11-22T12:27:42;12.60;99.90
48860;DHT22;34679;51.436;-2.518;2023-11-22T12:30:08;12.70;99.90
48860;DHT22;34679;51.436;-2.518;2023-11-22T12:32:39;12.70;99.90
48860;DHT22;34679;51.436;-2.518;2023-11-22T12:35:06;12.60;99.90
48860;DHT22;34679;51.436;-2.518;2023-11-22T12:37:33;12.60;99.90
48860;DHT22;34679;51.436;-2.518;2023-11-22T12:40:08;12.50;99.90
48860;DHT22;34679;51.436;-2.518;2023-11-22T12:42:49;12.50;99.90
48860;DHT22;34679;51.436;-2.518;2023-11-22T12:45:22;12.40;99.90
48860;DHT22;34679;51.436;-2.518;2023-11-22T12:47:50;12.30;99.90
48860;DHT22;34679;51.436;-2.518;2023-11-22T12:50:35;12.40;99.90
48860;DHT22;34679;51.436;-2.518;2023-11-22T12:53:12;12.30;99.90
48860;DHT22;34679;51.436;-2.518;2023-11-22T12:55:45;12.30;99.90
48860;DHT22;34679;51.436;-2.518;2023-11-22T12:58:12;12.30;99.90
48860;DHT22;34679;51.436;-2.518;2023-11-22T13:00:39;12.30;99.90
48860;DHT22;34679;51.436;-2.518;2023-11-22T13:03:11;12.30;99.90
48860;DHT22;34679;51.436;-2.518;2023-11-22T13:05:40;12.30;99.90
48860;DHT22;34679;51.436;-2.518;2023-11-22T13:08:09;12.30;99.90
48860;DHT22;34679;51.436;-2.518;2023-11-22T13:10:49;12.30;99.90
48860;DHT22;34679;51.436;-2.518;2023-11-22T13:13:23;12.30;99.90
48860;DHT22;34679;51.436;-2.518;2023-11-22T13:15:49;12.40;99.90
48860;DHT22;34679;51.436;-2.518;2023-11-22T13:18:16;12.40;99.90
48860;DHT22;34679;51.436;-2.518;2023-11-22T13:20:42;12.50;99.90
48860;DHT22;34679;51.436;-2.518;2023-11-22T13:23:08;12.40;99.90
48860;DHT22;34679;51.436;-2.518;2023-11-22T13:25:34;12.40;99.90
48860;DHT22;34679;51.436;-2.518;2023-11-22T13:28:00;12.30;99.90
48860;DHT22;34679;51.436;-2.518;2023-11-22T13:30:26;12.40;99.90
48860;DHT22;34679;51.436;-2.518;2023-11-22T13:32:56;12.40;99.90
48860;DHT22;34679;51.436;-2.518;2023-11-22T13:35:26;12.40;99.90
48860;DHT22;34679;51.436;-2.518;2023-11-22T13:37:59;12.40;99.90
48860;DHT22;34679;51.436;-2.518;2023-11-22T13:40:27;12.40;99.90
48860;DHT22;34679;51.436;-2.518;2023-11-22T13:42:56;12.40;99.90
48860;DHT22;34679;51.436;-2.518;2023-11-22T13:45:22;12.40;99.90
48860;DHT22;34679;51.436;-2.518;2023-11-22T13:47:52;12.40;99.90
48860;DHT22;34679;51.436;-2.518;2023-11-22T13:50:22;12.40;99.90
48860;DHT22;34679;51.436;-2.518;2023-11-22T13:52:49;12.30;99.90
48860;DHT22;34679;51.436;-2.518;2023-11-22T13:55:16;12.30;99.90
48860;DHT22;34679;51.436;-2.518;2023-11-22T13:57:45;12.30;99.90
48860;DHT22;34679;51.436;-2.518;2023-11-22T14:00:11;12.30;99.90
48860;DHT22;34679;51.436;-2.518;2023-11-22T14:02:51;12.30;99.90
48860;DHT22;34679;51.436;-2.518;2023-11-22T14:05:17;12.30;99.90
48860;DHT22;34679;51.436;-2.518;2023-11-22T14:07:43;12.20;99.90
48860;DHT22;34679;51.436;-2.518;2023-11-22T14:10:11;12.30;99.90
48860;DHT22;34679;51.436;-2.518;2023-11-22T14:12:42;12.30;99.90
48860;DHT22;34679;51.436;-2.518;2023-11-22T14:15:08;12.30;99.90
48860;DHT22;34679;51.436;-2.518;2023-11-22T14:17:35;12.30;99.90
48860;DHT22;34679;51.436;-2.518;2023-11-22T14:20:02;12.30;99.90
48860;DHT22;34679;51.436;-2.518;2023-11-22T14:22:30;12.30;99.90
48860;DHT22;34679;51.436;-2.518;2023-11-22T14:24:57;12.30;99.90
48860;DHT22;34679;51.436;-2.518;2023-11-22T14:27:23;12.30;99.90
48860;DHT22;34679;51.436;-2.518;2023-11-22T14:29:49;12.30;99.90
48860;DHT22;34679;51.436;-2.518;2023-11-22T14:32:16;12.30;99.90
48860;DHT22;34679;51.436;-2.518;2023-11-22T14:34:42;12.30;99.90
48860;DHT22;34679;51.436;-2.518;2023-11-22T14:37:11;12.30;99.90
48860;DHT22;34679;51.436;-2.518;2023-11-22T14:39:38;12.30;99.90
48860;DHT22;34679;51.436;-2.518;2023-11-22T14:42:04;12.30;99.90
48860;DHT22;34679;51.436;-2.518;2023-11-22T14:44:32;12.30;99.90
48860;DHT22;34679;51.436;-2.518;2023-11-22T14:46:57;12.30;99.90
48860;DHT22;34679;51.436;-2.518;2023-11-22T14:49:24;12.30;99.90
48860;DHT22;34679;51.436;-2.518;2023-11-22T14:51:51;12.30;99.90
48860;DHT22;34679;51.436;-2.518;2023-11-22T14:54:17;12.30;99.90
48860;DHT22;34679;51.436;-2.518;2023-11-22T14:56:42;12.30;99.90
48860;DHT22;34679;51.436;-2.518;2023-11-22T14:59:10;12.20;99.90
48860;DHT22;34679;51.436;-2.518;2023-11-22T15:01:35;12.20;99.90
48860;DHT22;34679;51.436;-2.518;2023-11-22T15:04:01;12.20;99.90
48860;DHT22;34679;51.436;-2.518;2023-11-22T15:06:27;12.10;99.90
48860;DHT22;34679;51.436;-2.518;2023-11-22T15:08:53;12.10;99.90
48860;DHT22;34679;51.436;-2.518;2023-11-22T15:11:19;12.10;99.90
48860;DHT22;34679;51.436;-2.518;2023-11-22T15:13:45;12.10;99.90
48860;DHT22;34679;51.436;-2.518;2023-11-22T15:16:10;12.10;99.90
48860;DHT22;34679;51.436;-2.518;2023-11-22T15:18:41;12.10;99.90
48860;DHT22;34679;51.436;-2.518;2023-11-22T15:21:07;12.10;99.90
48860;DHT22;34679;51.436;-2.518;2023-11-22T15:23:33;12.20;99.90
48860;DHT22;34679;51.436;-2.518;2023-11-22T15:25:59;12.20;99.90
48860;DHT22;34679;51.436;-2.518;2023-11-22T15:28:25;12.20;99.90
48860;DHT22;34679;51.436;-2.518;2023-11-22T15:30:52;12.20;99.90